• Join FlightAware (Why Join?)
  • Login
  • US Flag 
03:02PM EDT


 

Airport Tracker/Info


-or-


 

Live Flight TrackerFlight Track Log ✈ N109NT ✈ 16-Jul-2013 ✈ KSBO - KPDK

Flight Track Log - Related Links

Times and Time Zones

All times are in EDT time to prevent confusion due to time zone crossing. See the N109NT flight status page for this flight to view local times or setup timezone preferences in your user account.

Time Position Orientation Groundspeed Altitude Reporting Facility
EDT Latitude Longitude Course Direction KTS MPH feet Rate Location/Type
12:23PM 32.6244 -82.5244 265° West 366 421 6,100  Level Atlanta Center
12:24PM 32.6481 -82.5883 294° West 254 292 8,800 2,220 Climbing Atlanta Center
12:25PM 32.6969 -82.6614 309° West 255 293 10,600 1,980 Climbing Atlanta Center
12:26PM 32.7561 -82.7397 312° West 287 330 12,800 1,680 Climbing Atlanta Center
12:27PM 32.8156 -82.8278 309° West 318 366 14,000 600 Climbing Atlanta Center
12:28PM 32.5508 -82.8102 262° West  Level FlightAware Approximate
12:28PM 32.8833 -82.9281 309° West 359 413 14,000  Level Atlanta Center
12:29PM 32.9572 -83.0336 310° West 393 452 13,900 -60 Descending Atlanta Center
12:30PM 33.0292 -83.1344 310° West 405 466 13,900  Level Atlanta Center
12:31PM 33.1092 -83.2503 310° West 410 472 14,000 -60 Climbing Atlanta Center
12:32PM 33.1767 -83.3514 309° West 410 472 13,800 -780 Descending Atlanta Center
12:33PM 33.2481 -83.4550 310° West 404 465 12,500 -1,320 Descending Atlanta Center
12:34PM 33.3153 -83.5542 309° West 393 452 11,200 -780 Descending Atlanta Center
12:35PM 33.3678 -83.6383 307° West 377 434 11,000 -120 Descending Atlanta Center
12:36PM 33.4306 -83.7028 319° Northwest 322 371 11,000 -60 Level Atlanta Center
12:37PM 33.5017 -83.7597 326° Northwest 308 354 10,900 -900 Descending Atlanta Center
12:38PM 33.5747 -83.7869 343° North 287 330 9,200 -1,500 Descending Atlanta Center
12:39PM 33.6564 -83.8117 346° North 282 325 8,000 -1,140 Descending Atlanta Center
12:40PM 33.7314 -83.8389 343° North 282 325 7,000 -1,020 Descending Atlanta Center
12:41PM 33.7919 -83.8789 331° Northwest 260 299 6,000 -1,200 Descending Atlanta Center
12:42PM 33.8400 -83.9264 321° Northwest 239 275 4,700 -1,020 Descending Atlanta Center
12:43PM 33.8756 -83.9889 304° West 225 259 4,000 -540 Descending Atlanta Center
12:45PM 33.9167 -84.0667 303° West 218 251 3,600 -540 Descending Atlanta TRACON
12:45PM 33.9333 -84.1167 292° West 217 250 3,000 -540 Descending Atlanta TRACON
12:46PM 33.9333 -84.1833 270° West 204 235 2,600 -480 Descending Atlanta TRACON
12:47PM 33.9500 -84.2500 287° West 175 201 2,100 -540 Descending Atlanta TRACON
12:48PM 33.9167 -84.2833 220° Southwest 164 189 1,600 -540 Descending Atlanta TRACON
12:50PM 33.8756 -84.3020 220° Southwest  Level Estimated
12:57PM 33.8756 -84.3020 220° Southwest  Level Estimated
12:58PM 33.8756 -84.3020 220° Southwest  Level Estimated